sensor_id;sensor_type;location;lat;lon;timestamp;P1;durP1;ratioP1;P2;durP2;ratioP2
40537;SDS011;27925;41.874;12.526;2023-05-14T00:00:12;11.75;;;6.60;;
40537;SDS011;27925;41.874;12.526;2023-05-14T00:02:39;9.52;;;6.03;;
40537;SDS011;27925;41.874;12.526;2023-05-14T00:05:05;10.65;;;6.35;;
40537;SDS011;27925;41.874;12.526;2023-05-14T00:07:31;12.02;;;6.38;;
40537;SDS011;27925;41.874;12.526;2023-05-14T00:09:57;10.32;;;6.10;;
40537;SDS011;27925;41.874;12.526;2023-05-14T00:12:23;8.40;;;5.57;;
40537;SDS011;27925;41.874;12.526;2023-05-14T00:14:50;9.68;;;5.97;;
40537;SDS011;27925;41.874;12.526;2023-05-14T00:17:16;9.75;;;5.57;;
40537;SDS011;27925;41.874;12.526;2023-05-14T00:19:42;12.35;;;5.82;;
40537;SDS011;27925;41.874;12.526;2023-05-14T00:22:08;12.95;;;5.72;;
40537;SDS011;27925;41.874;12.526;2023-05-14T00:24:34;10.20;;;5.15;;
40537;SDS011;27925;41.874;12.526;2023-05-14T00:26:59;9.50;;;5.35;;
40537;SDS011;27925;41.874;12.526;2023-05-14T00:29:25;11.13;;;5.55;;
40537;SDS011;27925;41.874;12.526;2023-05-14T00:31:51;8.23;;;5.13;;
40537;SDS011;27925;41.874;12.526;2023-05-14T00:34:17;8.85;;;5.28;;
40537;SDS011;27925;41.874;12.526;2023-05-14T00:36:42;9.23;;;5.15;;
40537;SDS011;27925;41.874;12.526;2023-05-14T00:39:08;7.22;;;5.00;;
40537;SDS011;27925;41.874;12.526;2023-05-14T00:41:34;9.52;;;5.15;;
40537;SDS011;27925;41.874;12.526;2023-05-14T00:43:59;15.90;;;5.90;;
40537;SDS011;27925;41.874;12.526;2023-05-14T00:46:25;9.57;;;5.32;;
40537;SDS011;27925;41.874;12.526;2023-05-14T00:48:51;8.73;;;5.20;;
40537;SDS011;27925;41.874;12.526;2023-05-14T00:51:17;11.88;;;6.13;;
40537;SDS011;27925;41.874;12.526;2023-05-14T00:53:44;7.72;;;5.10;;
40537;SDS011;27925;41.874;12.526;2023-05-14T00:56:11;7.28;;;4.88;;
40537;SDS011;27925;41.874;12.526;2023-05-14T00:58:38;10.85;;;5.65;;
40537;SDS011;27925;41.874;12.526;2023-05-14T01:01:03;8.75;;;5.40;;
40537;SDS011;27925;41.874;12.526;2023-05-14T01:03:29;11.40;;;5.50;;
40537;SDS011;27925;41.874;12.526;2023-05-14T01:06:14;8.38;;;4.70;;
40537;SDS011;27925;41.874;12.526;2023-05-14T01:11:18;12.20;;;5.13;;
40537;SDS011;27925;41.874;12.526;2023-05-14T01:16:21;7.63;;;4.82;;
40537;SDS011;27925;41.874;12.526;2023-05-14T01:18:52;8.45;;;4.82;;
40537;SDS011;27925;41.874;12.526;2023-05-14T01:21:26;8.98;;;4.55;;
40537;SDS011;27925;41.874;12.526;2023-05-14T01:24:01;9.27;;;4.57;;
40537;SDS011;27925;41.874;12.526;2023-05-14T01:26:27;8.15;;;4.57;;
40537;SDS011;27925;41.874;12.526;2023-05-14T01:28:56;11.05;;;4.53;;
40537;SDS011;27925;41.874;12.526;2023-05-14T01:31:31;9.02;;;4.20;;
40537;SDS011;27925;41.874;12.526;2023-05-14T01:34:00;12.98;;;4.18;;
40537;SDS011;27925;41.874;12.526;2023-05-14T01:36:28;8.52;;;4.10;;
40537;SDS011;27925;41.874;12.526;2023-05-14T01:38:55;7.97;;;4.97;;
40537;SDS011;27925;41.874;12.526;2023-05-14T01:41:21;8.15;;;4.40;;
40537;SDS011;27925;41.874;12.526;2023-05-14T01:43:49;9.05;;;3.97;;
40537;SDS011;27925;41.874;12.526;2023-05-14T01:46:18;8.68;;;4.85;;
40537;SDS011;27925;41.874;12.526;2023-05-14T01:48:44;7.88;;;4.20;;
40537;SDS011;27925;41.874;12.526;2023-05-14T01:51:10;7.28;;;4.40;;
40537;SDS011;27925;41.874;12.526;2023-05-14T01:53:38;8.13;;;4.18;;
40537;SDS011;27925;41.874;12.526;2023-05-14T01:56:04;8.63;;;4.43;;
40537;SDS011;27925;41.874;12.526;2023-05-14T01:58:30;7.05;;;3.88;;
40537;SDS011;27925;41.874;12.526;2023-05-14T02:00:55;8.68;;;4.28;;
40537;SDS011;27925;41.874;12.526;2023-05-14T02:03:21;5.93;;;3.88;;
40537;SDS011;27925;41.874;12.526;2023-05-14T02:05:47;11.73;;;3.97;;
40537;SDS011;27925;41.874;12.526;2023-05-14T02:08:12;8.05;;;4.22;;
40537;SDS011;27925;41.874;12.526;2023-05-14T02:10:38;10.75;;;4.53;;
40537;SDS011;27925;41.874;12.526;2023-05-14T02:13:04;10.18;;;4.18;;
40537;SDS011;27925;41.874;12.526;2023-05-14T02:15:29;6.45;;;4.22;;
40537;SDS011;27925;41.874;12.526;2023-05-14T02:17:55;6.95;;;3.60;;
40537;SDS011;27925;41.874;12.526;2023-05-14T02:20:21;8.77;;;4.30;;
40537;SDS011;27925;41.874;12.526;2023-05-14T02:22:46;10.45;;;3.90;;
40537;SDS011;27925;41.874;12.526;2023-05-14T02:25:12;8.15;;;4.20;;
40537;SDS011;27925;41.874;12.526;2023-05-14T02:27:38;7.03;;;4.25;;
40537;SDS011;27925;41.874;12.526;2023-05-14T02:30:03;7.57;;;4.05;;
40537;SDS011;27925;41.874;12.526;2023-05-14T02:32:30;9.60;;;4.50;;
40537;SDS011;27925;41.874;12.526;2023-05-14T02:34:55;11.93;;;4.35;;
40537;SDS011;27925;41.874;12.526;2023-05-14T02:37:21;7.97;;;4.43;;
40537;SDS011;27925;41.874;12.526;2023-05-14T02:39:47;9.35;;;4.25;;
40537;SDS011;27925;41.874;12.526;2023-05-14T02:42:13;7.70;;;4.53;;
40537;SDS011;27925;41.874;12.526;2023-05-14T02:44:39;9.20;;;4.55;;
40537;SDS011;27925;41.874;12.526;2023-05-14T02:47:04;8.95;;;4.75;;
40537;SDS011;27925;41.874;12.526;2023-05-14T02:49:30;7.45;;;4.32;;
40537;SDS011;27925;41.874;12.526;2023-05-14T02:51:56;8.95;;;4.10;;
40537;SDS011;27925;41.874;12.526;2023-05-14T02:54:22;8.85;;;4.10;;
40537;SDS011;27925;41.874;12.526;2023-05-14T02:56:47;6.45;;;3.85;;
40537;SDS011;27925;41.874;12.526;2023-05-14T02:59:13;6.50;;;4.25;;
40537;SDS011;27925;41.874;12.526;2023-05-14T03:01:39;7.68;;;4.25;;
40537;SDS011;27925;41.874;12.526;2023-05-14T03:04:04;8.45;;;4.55;;
40537;SDS011;27925;41.874;12.526;2023-05-14T03:06:30;9.60;;;4.80;;
40537;SDS011;27925;41.874;12.526;2023-05-14T03:08:56;8.10;;;4.47;;
40537;SDS011;27925;41.874;12.526;2023-05-14T03:11:21;7.90;;;4.50;;
40537;SDS011;27925;41.874;12.526;2023-05-14T03:13:47;9.13;;;4.28;;
40537;SDS011;27925;41.874;12.526;2023-05-14T03:16:13;10.80;;;4.10;;
40537;SDS011;27925;41.874;12.526;2023-05-14T03:18:38;7.13;;;4.20;;
40537;SDS011;27925;41.874;12.526;2023-05-14T03:21:04;11.55;;;4.95;;
40537;SDS011;27925;41.874;12.526;2023-05-14T03:23:30;7.47;;;4.43;;
40537;SDS011;27925;41.874;12.526;2023-05-14T03:25:59;7.28;;;4.30;;
40537;SDS011;27925;41.874;12.526;2023-05-14T03:28:25;10.25;;;4.90;;
40537;SDS011;27925;41.874;12.526;2023-05-14T03:30:51;11.68;;;4.68;;
40537;SDS011;27925;41.874;12.526;2023-05-14T03:33:16;10.65;;;5.00;;
40537;SDS011;27925;41.874;12.526;2023-05-14T03:35:42;9.50;;;4.57;;
40537;SDS011;27925;41.874;12.526;2023-05-14T03:38:08;8.55;;;4.60;;
40537;SDS011;27925;41.874;12.526;2023-05-14T03:40:33;10.32;;;5.28;;
40537;SDS011;27925;41.874;12.526;2023-05-14T03:42:59;9.18;;;5.60;;
40537;SDS011;27925;41.874;12.526;2023-05-14T03:45:25;8.52;;;5.30;;
40537;SDS011;27925;41.874;12.526;2023-05-14T03:47:52;9.65;;;5.53;;
40537;SDS011;27925;41.874;12.526;2023-05-14T03:50:18;10.52;;;6.05;;
40537;SDS011;27925;41.874;12.526;2023-05-14T03:52:44;11.73;;;6.03;;
40537;SDS011;27925;41.874;12.526;2023-05-14T03:55:10;9.77;;;4.95;;
40537;SDS011;27925;41.874;12.526;2023-05-14T03:57:35;8.23;;;4.68;;
40537;SDS011;27925;41.874;12.526;2023-05-14T04:00:02;10.77;;;5.85;;
40537;SDS011;27925;41.874;12.526;2023-05-14T04:02:28;8.40;;;5.10;;
40537;SDS011;27925;41.874;12.526;2023-05-14T04:04:54;11.15;;;5.35;;
40537;SDS011;27925;41.874;12.526;2023-05-14T04:07:20;9.75;;;5.15;;
40537;SDS011;27925;41.874;12.526;2023-05-14T04:09:46;12.30;;;5.63;;
40537;SDS011;27925;41.874;12.526;2023-05-14T04:12:11;10.65;;;5.38;;
40537;SDS011;27925;41.874;12.526;2023-05-14T04:14:37;10.60;;;4.88;;
40537;SDS011;27925;41.874;12.526;2023-05-14T04:17:03;9.50;;;5.05;;
40537;SDS011;27925;41.874;12.526;2023-05-14T04:19:29;9.50;;;5.07;;
40537;SDS011;27925;41.874;12.526;2023-05-14T04:21:54;10.80;;;5.80;;
40537;SDS011;27925;41.874;12.526;2023-05-14T04:24:20;8.68;;;5.05;;
40537;SDS011;27925;41.874;12.526;2023-05-14T04:26:45;10.27;;;5.57;;
40537;SDS011;27925;41.874;12.526;2023-05-14T04:29:11;9.80;;;5.32;;
40537;SDS011;27925;41.874;12.526;2023-05-14T04:31:37;10.77;;;5.30;;
40537;SDS011;27925;41.874;12.526;2023-05-14T04:34:03;20.15;;;12.30;;
40537;SDS011;27925;41.874;12.526;2023-05-14T04:36:29;10.90;;;5.57;;
40537;SDS011;27925;41.874;12.526;2023-05-14T04:38:55;10.20;;;5.53;;
40537;SDS011;27925;41.874;12.526;2023-05-14T04:41:20;8.40;;;5.07;;
40537;SDS011;27925;41.874;12.526;2023-05-14T04:43:48;12.55;;;4.95;;
40537;SDS011;27925;41.874;12.526;2023-05-14T04:46:14;11.15;;;4.90;;
40537;SDS011;27925;41.874;12.526;2023-05-14T04:48:40;10.45;;;4.80;;
40537;SDS011;27925;41.874;12.526;2023-05-14T04:51:06;12.30;;;5.05;;
40537;SDS011;27925;41.874;12.526;2023-05-14T04:53:32;9.77;;;4.85;;
40537;SDS011;27925;41.874;12.526;2023-05-14T04:55:58;9.43;;;4.85;;
40537;SDS011;27925;41.874;12.526;2023-05-14T04:58:23;9.50;;;5.07;;
40537;SDS011;27925;41.874;12.526;2023-05-14T05:00:51;8.88;;;4.68;;
40537;SDS011;27925;41.874;12.526;2023-05-14T05:03:17;8.02;;;4.85;;
40537;SDS011;27925;41.874;12.526;2023-05-14T05:05:42;10.82;;;5.10;;
40537;SDS011;27925;41.874;12.526;2023-05-14T05:08:08;11.50;;;5.50;;
40537;SDS011;27925;41.874;12.526;2023-05-14T05:10:35;12.52;;;5.55;;
40537;SDS011;27925;41.874;12.526;2023-05-14T05:13:01;9.65;;;5.10;;
40537;SDS011;27925;41.874;12.526;2023-05-14T05:15:26;9.70;;;4.82;;
40537;SDS011;27925;41.874;12.526;2023-05-14T05:17:52;10.18;;;5.40;;
40537;SDS011;27925;41.874;12.526;2023-05-14T05:20:17;11.07;;;5.07;;
40537;SDS011;27925;41.874;12.526;2023-05-14T05:22:43;10.32;;;4.78;;
40537;SDS011;27925;41.874;12.526;2023-05-14T05:25:09;9.07;;;5.38;;
40537;SDS011;27925;41.874;12.526;2023-05-14T05:27:36;12.98;;;5.40;;
40537;SDS011;27925;41.874;12.526;2023-05-14T05:30:02;9.82;;;5.57;;
40537;SDS011;27925;41.874;12.526;2023-05-14T05:32:28;10.40;;;5.50;;
40537;SDS011;27925;41.874;12.526;2023-05-14T05:34:55;9.57;;;5.45;;
40537;SDS011;27925;41.874;12.526;2023-05-14T05:37:21;10.27;;;5.20;;
40537;SDS011;27925;41.874;12.526;2023-05-14T05:39:46;8.63;;;5.50;;
40537;SDS011;27925;41.874;12.526;2023-05-14T05:42:12;9.20;;;5.22;;
40537;SDS011;27925;41.874;12.526;2023-05-14T05:44:38;12.05;;;7.07;;
40537;SDS011;27925;41.874;12.526;2023-05-14T05:47:04;11.80;;;5.53;;
40537;SDS011;27925;41.874;12.526;2023-05-14T05:49:30;10.63;;;5.50;;
40537;SDS011;27925;41.874;12.526;2023-05-14T05:51:55;10.27;;;5.40;;
40537;SDS011;27925;41.874;12.526;2023-05-14T05:54:22;8.65;;;5.03;;
40537;SDS011;27925;41.874;12.526;2023-05-14T05:56:49;8.70;;;4.93;;
40537;SDS011;27925;41.874;12.526;2023-05-14T05:59:15;11.57;;;5.57;;
40537;SDS011;27925;41.874;12.526;2023-05-14T06:01:40;8.27;;;4.80;;
40537;SDS011;27925;41.874;12.526;2023-05-14T06:04:07;8.75;;;4.80;;
40537;SDS011;27925;41.874;12.526;2023-05-14T06:06:33;9.63;;;5.20;;
40537;SDS011;27925;41.874;12.526;2023-05-14T06:08:59;11.88;;;5.40;;
40537;SDS011;27925;41.874;12.526;2023-05-14T06:11:26;10.02;;;5.63;;
40537;SDS011;27925;41.874;12.526;2023-05-14T06:13:52;10.93;;;5.32;;
40537;SDS011;27925;41.874;12.526;2023-05-14T06:16:18;12.88;;;5.22;;
40537;SDS011;27925;41.874;12.526;2023-05-14T06:18:43;9.63;;;5.70;;
40537;SDS011;27925;41.874;12.526;2023-05-14T06:21:09;9.68;;;5.57;;
40537;SDS011;27925;41.874;12.526;2023-05-14T06:23:36;13.70;;;8.13;;
40537;SDS011;27925;41.874;12.526;2023-05-14T06:26:01;11.05;;;6.68;;
40537;SDS011;27925;41.874;12.526;2023-05-14T06:28:27;10.35;;;5.43;;
40537;SDS011;27925;41.874;12.526;2023-05-14T06:30:53;8.60;;;4.55;;
40537;SDS011;27925;41.874;12.526;2023-05-14T06:33:19;6.75;;;3.72;;
40537;SDS011;27925;41.874;12.526;2023-05-14T06:35:47;7.93;;;4.35;;
40537;SDS011;27925;41.874;12.526;2023-05-14T06:38:13;7.63;;;4.30;;
40537;SDS011;27925;41.874;12.526;2023-05-14T06:40:38;8.13;;;4.20;;
40537;SDS011;27925;41.874;12.526;2023-05-14T06:43:04;9.07;;;3.60;;
40537;SDS011;27925;41.874;12.526;2023-05-14T06:45:30;9.55;;;3.90;;
40537;SDS011;27925;41.874;12.526;2023-05-14T06:47:56;7.72;;;4.22;;
40537;SDS011;27925;41.874;12.526;2023-05-14T06:50:21;9.82;;;4.70;;
40537;SDS011;27925;41.874;12.526;2023-05-14T06:52:47;7.32;;;4.25;;
40537;SDS011;27925;41.874;12.526;2023-05-14T06:55:13;10.00;;;5.20;;
40537;SDS011;27925;41.874;12.526;2023-05-14T06:57:38;10.05;;;5.38;;
40537;SDS011;27925;41.874;12.526;2023-05-14T07:00:04;6.05;;;3.40;;
40537;SDS011;27925;41.874;12.526;2023-05-14T07:02:31;6.97;;;3.80;;
40537;SDS011;27925;41.874;12.526;2023-05-14T07:04:56;11.32;;;3.60;;
40537;SDS011;27925;41.874;12.526;2023-05-14T07:07:22;7.35;;;3.38;;
40537;SDS011;27925;41.874;12.526;2023-05-14T07:09:48;5.63;;;3.13;;
40537;SDS011;27925;41.874;12.526;2023-05-14T07:12:13;8.50;;;3.80;;
40537;SDS011;27925;41.874;12.526;2023-05-14T07:14:39;9.35;;;5.55;;
40537;SDS011;27925;41.874;12.526;2023-05-14T07:17:04;8.45;;;4.25;;
40537;SDS011;27925;41.874;12.526;2023-05-14T07:19:30;7.55;;;4.03;;
40537;SDS011;27925;41.874;12.526;2023-05-14T07:21:56;15.70;;;5.07;;
40537;SDS011;27925;41.874;12.526;2023-05-14T07:24:22;17.63;;;13.00;;
40537;SDS011;27925;41.874;12.526;2023-05-14T07:26:48;8.68;;;3.75;;
40537;SDS011;27925;41.874;12.526;2023-05-14T07:29:13;5.55;;;3.25;;
40537;SDS011;27925;41.874;12.526;2023-05-14T07:31:39;9.00;;;3.42;;
40537;SDS011;27925;41.874;12.526;2023-05-14T07:34:05;5.50;;;3.20;;
40537;SDS011;27925;41.874;12.526;2023-05-14T07:36:32;9.38;;;3.28;;
40537;SDS011;27925;41.874;12.526;2023-05-14T07:38:58;8.38;;;3.67;;
40537;SDS011;27925;41.874;12.526;2023-05-14T07:41:24;6.57;;;3.20;;
40537;SDS011;27925;41.874;12.526;2023-05-14T07:43:50;7.38;;;3.00;;
40537;SDS011;27925;41.874;12.526;2023-05-14T07:46:15;6.10;;;3.75;;
40537;SDS011;27925;41.874;12.526;2023-05-14T07:48:41;4.93;;;3.00;;
40537;SDS011;27925;41.874;12.526;2023-05-14T07:51:06;7.00;;;3.53;;
40537;SDS011;27925;41.874;12.526;2023-05-14T07:53:32;6.80;;;2.90;;
40537;SDS011;27925;41.874;12.526;2023-05-14T07:55:58;10.40;;;4.57;;
40537;SDS011;27925;41.874;12.526;2023-05-14T07:58:24;6.18;;;3.53;;
40537;SDS011;27925;41.874;12.526;2023-05-14T08:00:51;6.00;;;2.30;;
40537;SDS011;27925;41.874;12.526;2023-05-14T08:03:17;5.35;;;2.38;;
40537;SDS011;27925;41.874;12.526;2023-05-14T08:05:43;4.68;;;2.35;;
40537;SDS011;27925;41.874;12.526;2023-05-14T08:08:09;7.30;;;2.42;;
40537;SDS011;27925;41.874;12.526;2023-05-14T08:10:34;6.25;;;3.08;;
40537;SDS011;27925;41.874;12.526;2023-05-14T08:13:00;6.65;;;3.20;;
40537;SDS011;27925;41.874;12.526;2023-05-14T08:15:26;5.43;;;3.08;;
40537;SDS011;27925;41.874;12.526;2023-05-14T08:17:51;7.07;;;3.22;;
40537;SDS011;27925;41.874;12.526;2023-05-14T08:20:17;6.70;;;3.67;;
40537;SDS011;27925;41.874;12.526;2023-05-14T08:22:43;8.55;;;4.80;;
40537;SDS011;27925;41.874;12.526;2023-05-14T08:25:09;8.60;;;3.80;;
40537;SDS011;27925;41.874;12.526;2023-05-14T08:27:34;8.70;;;3.53;;
40537;SDS011;27925;41.874;12.526;2023-05-14T08:30:00;5.20;;;2.92;;
40537;SDS011;27925;41.874;12.526;2023-05-14T08:32:26;4.90;;;2.45;;
40537;SDS011;27925;41.874;12.526;2023-05-14T08:34:52;6.10;;;3.22;;
40537;SDS011;27925;41.874;12.526;2023-05-14T08:37:17;5.85;;;2.88;;
40537;SDS011;27925;41.874;12.526;2023-05-14T08:39:43;7.60;;;2.70;;
40537;SDS011;27925;41.874;12.526;2023-05-14T08:42:09;5.90;;;2.47;;
40537;SDS011;27925;41.874;12.526;2023-05-14T08:44:54;6.43;;;2.60;;
40537;SDS011;27925;41.874;12.526;2023-05-14T08:47:24;5.82;;;2.83;;
40537;SDS011;27925;41.874;12.526;2023-05-14T08:50:08;4.85;;;2.50;;
40537;SDS011;27925;41.874;12.526;2023-05-14T08:55:02;5.70;;;2.30;;
40537;SDS011;27925;41.874;12.526;2023-05-14T08:57:29;5.03;;;2.45;;
40537;SDS011;27925;41.874;12.526;2023-05-14T08:59:57;5.07;;;2.90;;
40537;SDS011;27925;41.874;12.526;2023-05-14T09:02:23;9.60;;;5.50;;
40537;SDS011;27925;41.874;12.526;2023-05-14T09:04:53;10.60;;;3.80;;
40537;SDS011;27925;41.874;12.526;2023-05-14T09:07:20;7.13;;;3.28;;
40537;SDS011;27925;41.874;12.526;2023-05-14T09:09:46;6.07;;;2.60;;
40537;SDS011;27925;41.874;12.526;2023-05-14T09:12:13;6.18;;;2.95;;
40537;SDS011;27925;41.874;12.526;2023-05-14T09:14:39;7.82;;;2.80;;
40537;SDS011;27925;41.874;12.526;2023-05-14T09:17:05;8.68;;;3.25;;
40537;SDS011;27925;41.874;12.526;2023-05-14T09:19:32;7.05;;;4.28;;
40537;SDS011;27925;41.874;12.526;2023-05-14T09:21:58;6.47;;;2.63;;
40537;SDS011;27925;41.874;12.526;2023-05-14T09:24:25;6.35;;;3.00;;
40537;SDS011;27925;41.874;12.526;2023-05-14T09:26:53;5.57;;;2.30;;
40537;SDS011;27925;41.874;12.526;2023-05-14T09:29:26;4.55;;;2.72;;
40537;SDS011;27925;41.874;12.526;2023-05-14T09:31:54;5.05;;;2.47;;
40537;SDS011;27925;41.874;12.526;2023-05-14T09:39:22;6.78;;;2.40;;
40537;SDS011;27925;41.874;12.526;2023-05-14T09:41:48;6.20;;;2.40;;
40537;SDS011;27925;41.874;12.526;2023-05-14T09:44:16;7.10;;;2.90;;
40537;SDS011;27925;41.874;12.526;2023-05-14T09:46:42;6.63;;;2.63;;
40537;SDS011;27925;41.874;12.526;2023-05-14T09:49:08;5.70;;;2.45;;
40537;SDS011;27925;41.874;12.526;2023-05-14T09:51:34;7.18;;;2.38;;
40537;SDS011;27925;41.874;12.526;2023-05-14T09:54:01;4.75;;;2.30;;
40537;SDS011;27925;41.874;12.526;2023-05-14T09:56:28;6.22;;;2.33;;
40537;SDS011;27925;41.874;12.526;2023-05-14T09:58:54;6.85;;;2.28;;
40537;SDS011;27925;41.874;12.526;2023-05-14T10:01:20;5.53;;;2.53;;
40537;SDS011;27925;41.874;12.526;2023-05-14T10:03:47;6.35;;;1.95;;
40537;SDS011;27925;41.874;12.526;2023-05-14T10:06:14;5.40;;;1.98;;
40537;SDS011;27925;41.874;12.526;2023-05-14T10:08:43;7.18;;;2.38;;
40537;SDS011;27925;41.874;12.526;2023-05-14T10:11:12;7.85;;;2.65;;
40537;SDS011;27925;41.874;12.526;2023-05-14T10:13:45;7.63;;;3.55;;
40537;SDS011;27925;41.874;12.526;2023-05-14T10:19:11;7.30;;;3.05;;
40537;SDS011;27925;41.874;12.526;2023-05-14T10:21:39;7.63;;;2.60;;
40537;SDS011;27925;41.874;12.526;2023-05-14T10:24:08;7.03;;;2.53;;
40537;SDS011;27925;41.874;12.526;2023-05-14T10:26:35;7.60;;;2.10;;
40537;SDS011;27925;41.874;12.526;2023-05-14T10:29:06;6.00;;;1.90;;
40537;SDS011;27925;41.874;12.526;2023-05-14T10:31:53;4.70;;;1.80;;
40537;SDS011;27925;41.874;12.526;2023-05-14T10:34:38;5.45;;;1.80;;
40537;SDS011;27925;41.874;12.526;2023-05-14T10:39:39;6.68;;;2.75;;
40537;SDS011;27925;41.874;12.526;2023-05-14T10:42:19;6.82;;;3.13;;
40537;SDS011;27925;41.874;12.526;2023-05-14T10:47:25;8.95;;;3.08;;
40537;SDS011;27925;41.874;12.526;2023-05-14T10:49:56;4.90;;;1.70;;
40537;SDS011;27925;41.874;12.526;2023-05-14T10:52:23;3.97;;;1.92;;
40537;SDS011;27925;41.874;12.526;2023-05-14T10:54:53;3.85;;;1.75;;
40537;SDS011;27925;41.874;12.526;2023-05-14T10:57:27;4.22;;;1.60;;
40537;SDS011;27925;41.874;12.526;2023-05-14T10:59:55;4.53;;;2.00;;
40537;SDS011;27925;41.874;12.526;2023-05-14T11:02:24;6.22;;;2.25;;
40537;SDS011;27925;41.874;12.526;2023-05-14T11:04:51;3.58;;;1.33;;
40537;SDS011;27925;41.874;12.526;2023-05-14T11:07:37;6.43;;;2.13;;
40537;SDS011;27925;41.874;12.526;2023-05-14T11:10:12;5.47;;;2.28;;
40537;SDS011;27925;41.874;12.526;2023-05-14T11:12:40;5.03;;;2.13;;
40537;SDS011;27925;41.874;12.526;2023-05-14T11:15:08;6.72;;;2.50;;
40537;SDS011;27925;41.874;12.526;2023-05-14T11:17:54;5.05;;;2.00;;
40537;SDS011;27925;41.874;12.526;2023-05-14T11:20:20;5.50;;;1.90;;
40537;SDS011;27925;41.874;12.526;2023-05-14T11:22:46;5.25;;;1.90;;
40537;SDS011;27925;41.874;12.526;2023-05-14T11:25:13;4.95;;;1.60;;
40537;SDS011;27925;41.874;12.526;2023-05-14T11:27:41;4.60;;;1.67;;
40537;SDS011;27925;41.874;12.526;2023-05-14T11:30:14;2.50;;;1.30;;
40537;SDS011;27925;41.874;12.526;2023-05-14T11:32:42;4.25;;;1.52;;
40537;SDS011;27925;41.874;12.526;2023-05-14T11:35:09;6.13;;;1.80;;
40537;SDS011;27925;41.874;12.526;2023-05-14T11:37:35;4.88;;;1.67;;
40537;SDS011;27925;41.874;12.526;2023-05-14T11:40:01;4.45;;;1.50;;
40537;SDS011;27925;41.874;12.526;2023-05-14T11:42:27;8.55;;;2.72;;
40537;SDS011;27925;41.874;12.526;2023-05-14T11:44:52;5.15;;;1.65;;
40537;SDS011;27925;41.874;12.526;2023-05-14T11:47:19;6.50;;;1.85;;
40537;SDS011;27925;41.874;12.526;2023-05-14T11:49:45;3.90;;;1.70;;
40537;SDS011;27925;41.874;12.526;2023-05-14T11:52:12;5.85;;;2.10;;
40537;SDS011;27925;41.874;12.526;2023-05-14T11:54:39;3.58;;;1.70;;
40537;SDS011;27925;41.874;12.526;2023-05-14T11:57:07;3.88;;;1.67;;
40537;SDS011;27925;41.874;12.526;2023-05-14T11:59:38;6.70;;;3.65;;
40537;SDS011;27925;41.874;12.526;2023-05-14T12:02:04;3.58;;;1.50;;
40537;SDS011;27925;41.874;12.526;2023-05-14T12:04:33;4.18;;;1.85;;
40537;SDS011;27925;41.874;12.526;2023-05-14T12:07:03;3.53;;;1.65;;
40537;SDS011;27925;41.874;12.526;2023-05-14T12:09:41;3.42;;;1.40;;
40537;SDS011;27925;41.874;12.526;2023-05-14T12:12:13;3.20;;;1.40;;
40537;SDS011;27925;41.874;12.526;2023-05-14T12:14:41;3.95;;;1.30;;
40537;SDS011;27925;41.874;12.526;2023-05-14T12:17:11;4.63;;;1.23;;
40537;SDS011;27925;41.874;12.526;2023-05-14T12:19:41;4.03;;;1.60;;
40537;SDS011;27925;41.874;12.526;2023-05-14T12:22:08;5.07;;;1.70;;
40537;SDS011;27925;41.874;12.526;2023-05-14T12:24:35;7.22;;;4.15;;
40537;SDS011;27925;41.874;12.526;2023-05-14T12:27:03;4.03;;;2.00;;
40537;SDS011;27925;41.874;12.526;2023-05-14T12:29:29;3.80;;;1.70;;
40537;SDS011;27925;41.874;12.526;2023-05-14T12:31:55;3.22;;;1.20;;
40537;SDS011;27925;41.874;12.526;2023-05-14T12:34:23;2.95;;;1.38;;
40537;SDS011;27925;41.874;12.526;2023-05-14T12:36:48;5.07;;;1.30;;
40537;SDS011;27925;41.874;12.526;2023-05-14T12:39:14;3.65;;;1.15;;
40537;SDS011;27925;41.874;12.526;2023-05-14T12:41:40;4.63;;;1.23;;
40537;SDS011;27925;41.874;12.526;2023-05-14T12:44:05;3.30;;;1.40;;
40537;SDS011;27925;41.874;12.526;2023-05-14T12:46:31;4.57;;;1.40;;
40537;SDS011;27925;41.874;12.526;2023-05-14T12:48:58;4.30;;;1.20;;
40537;SDS011;27925;41.874;12.526;2023-05-14T12:51:24;3.13;;;1.30;;
40537;SDS011;27925;41.874;12.526;2023-05-14T12:53:49;4.43;;;2.10;;
40537;SDS011;27925;41.874;12.526;2023-05-14T12:56:17;2.35;;;1.20;;
40537;SDS011;27925;41.874;12.526;2023-05-14T12:58:44;3.28;;;1.27;;
40537;SDS011;27925;41.874;12.526;2023-05-14T13:01:10;2.22;;;1.00;;
40537;SDS011;27925;41.874;12.526;2023-05-14T13:03:36;1.80;;;1.08;;
40537;SDS011;27925;41.874;12.526;2023-05-14T13:06:02;3.00;;;1.10;;
40537;SDS011;27925;41.874;12.526;2023-05-14T13:08:28;3.95;;;1.63;;
40537;SDS011;27925;41.874;12.526;2023-05-14T13:10:53;3.30;;;1.25;;
40537;SDS011;27925;41.874;12.526;2023-05-14T13:13:20;2.33;;;1.20;;
40537;SDS011;27925;41.874;12.526;2023-05-14T13:15:46;5.88;;;1.90;;
40537;SDS011;27925;41.874;12.526;2023-05-14T13:18:12;5.90;;;1.60;;
40537;SDS011;27925;41.874;12.526;2023-05-14T13:20:38;6.22;;;1.85;;
40537;SDS011;27925;41.874;12.526;2023-05-14T13:23:04;5.18;;;1.58;;
40537;SDS011;27925;41.874;12.526;2023-05-14T13:25:30;4.07;;;1.75;;
40537;SDS011;27925;41.874;12.526;2023-05-14T13:27:56;4.35;;;1.27;;
40537;SDS011;27925;41.874;12.526;2023-05-14T13:30:21;3.97;;;1.65;;
40537;SDS011;27925;41.874;12.526;2023-05-14T13:32:47;4.72;;;1.70;;
40537;SDS011;27925;41.874;12.526;2023-05-14T13:35:13;3.05;;;1.50;;
40537;SDS011;27925;41.874;12.526;2023-05-14T13:37:39;3.45;;;1.40;;
40537;SDS011;27925;41.874;12.526;2023-05-14T13:40:04;3.83;;;1.20;;
40537;SDS011;27925;41.874;12.526;2023-05-14T13:42:34;3.05;;;1.00;;
40537;SDS011;27925;41.874;12.526;2023-05-14T13:45:00;3.45;;;1.15;;
40537;SDS011;27925;41.874;12.526;2023-05-14T13:47:26;4.00;;;1.40;;
40537;SDS011;27925;41.874;12.526;2023-05-14T13:49:52;5.20;;;1.38;;
40537;SDS011;27925;41.874;12.526;2023-05-14T13:52:18;2.42;;;1.13;;
40537;SDS011;27925;41.874;12.526;2023-05-14T13:54:44;5.60;;;1.10;;
40537;SDS011;27925;41.874;12.526;2023-05-14T13:57:10;3.22;;;1.30;;
40537;SDS011;27925;41.874;12.526;2023-05-14T13:59:35;7.47;;;1.63;;
40537;SDS011;27925;41.874;12.526;2023-05-14T14:02:01;4.90;;;1.40;;
40537;SDS011;27925;41.874;12.526;2023-05-14T14:04:27;6.35;;;1.60;;
40537;SDS011;27925;41.874;12.526;2023-05-14T14:06:53;3.78;;;1.30;;
40537;SDS011;27925;41.874;12.526;2023-05-14T14:09:19;5.50;;;1.35;;
40537;SDS011;27925;41.874;12.526;2023-05-14T14:11:45;4.40;;;1.20;;
40537;SDS011;27925;41.874;12.526;2023-05-14T14:14:11;2.90;;;1.10;;
40537;SDS011;27925;41.874;12.526;2023-05-14T14:16:37;4.60;;;1.48;;
40537;SDS011;27925;41.874;12.526;2023-05-14T14:19:02;3.13;;;1.15;;
40537;SDS011;27925;41.874;12.526;2023-05-14T14:21:28;4.00;;;1.20;;
40537;SDS011;27925;41.874;12.526;2023-05-14T14:23:55;4.18;;;1.60;;
40537;SDS011;27925;41.874;12.526;2023-05-14T14:26:20;12.30;;;9.80;;
40537;SDS011;27925;41.874;12.526;2023-05-14T14:28:46;4.28;;;2.15;;
40537;SDS011;27925;41.874;12.526;2023-05-14T14:31:12;4.72;;;1.60;;
40537;SDS011;27925;41.874;12.526;2023-05-14T14:33:37;4.55;;;1.48;;
40537;SDS011;27925;41.874;12.526;2023-05-14T14:36:04;4.30;;;1.48;;
40537;SDS011;27925;41.874;12.526;2023-05-14T14:38:30;3.58;;;1.40;;
40537;SDS011;27925;41.874;12.526;2023-05-14T14:40:58;3.53;;;1.20;;
40537;SDS011;27925;41.874;12.526;2023-05-14T14:43:23;4.75;;;1.65;;
40537;SDS011;27925;41.874;12.526;2023-05-14T14:45:49;6.13;;;1.58;;
40537;SDS011;27925;41.874;12.526;2023-05-14T14:50:58;3.00;;;1.27;;